sensor_id;sensor_type;location;lat;lon;timestamp;pressure;altitude;pressure_sealevel;temperature;humidity
40372;BME280;28564;53.346;-6.554;2023-04-07T00:02:03;101306.92;;;10.81;40.23
40372;BME280;28564;53.346;-6.554;2023-04-07T00:04:30;101309.07;;;10.45;40.36
40372;BME280;28564;53.346;-6.554;2023-04-07T00:06:57;101309.16;;;10.88;40.43
40372;BME280;28564;53.346;-6.554;2023-04-07T00:09:25;101306.25;;;10.59;40.53
40372;BME280;28564;53.346;-6.554;2023-04-07T00:11:52;101302.97;;;10.83;40.52
40372;BME280;28564;53.346;-6.554;2023-04-07T00:14:19;101302.10;;;10.52;40.49
40372;BME280;28564;53.346;-6.554;2023-04-07T00:16:47;101304.03;;;10.72;40.54
40372;BME280;28564;53.346;-6.554;2023-04-07T00:19:14;101301.53;;;10.39;40.60
40372;BME280;28564;53.346;-6.554;2023-04-07T00:21:41;101299.95;;;10.64;40.68
40372;BME280;28564;53.346;-6.554;2023-04-07T00:24:08;101298.92;;;10.64;40.75
40372;BME280;28564;53.346;-6.554;2023-04-07T00:26:36;101299.53;;;10.63;40.70
40372;BME280;28564;53.346;-6.554;2023-04-07T00:29:03;101300.96;;;10.34;40.74
40372;BME280;28564;53.346;-6.554;2023-04-07T00:31:30;101298.23;;;10.58;40.83
40372;BME280;28564;53.346;-6.554;2023-04-07T00:33:57;101299.87;;;10.56;40.64
40372;BME280;28564;53.346;-6.554;2023-04-07T00:36:24;101299.32;;;10.52;40.63
40372;BME280;28564;53.346;-6.554;2023-04-07T00:38:52;101296.16;;;10.45;40.68
40372;BME280;28564;53.346;-6.554;2023-04-07T00:41:19;101296.14;;;10.85;40.76
40372;BME280;28564;53.346;-6.554;2023-04-07T00:43:46;101296.35;;;10.31;40.94
40372;BME280;28564;53.346;-6.554;2023-04-07T00:46:15;101296.48;;;10.30;41.06
40372;BME280;28564;53.346;-6.554;2023-04-07T00:48:44;101299.57;;;10.27;41.03
40372;BME280;28564;53.346;-6.554;2023-04-07T00:51:11;101302.77;;;9.94;41.03
40372;BME280;28564;53.346;-6.554;2023-04-07T00:53:39;101297.05;;;10.07;41.03
40372;BME280;28564;53.346;-6.554;2023-04-07T00:56:06;101294.82;;;10.00;41.19
40372;BME280;28564;53.346;-6.554;2023-04-07T00:58:33;101295.11;;;10.20;41.28
40372;BME280;28564;53.346;-6.554;2023-04-07T01:01:08;101292.94;;;9.96;41.29
40372;BME280;28564;53.346;-6.554;2023-04-07T01:03:42;101296.04;;;9.93;41.32
40372;BME280;28564;53.346;-6.554;2023-04-07T01:06:15;101294.30;;;10.03;41.25
40372;BME280;28564;53.346;-6.554;2023-04-07T01:08:52;101293.64;;;10.21;41.31
40372;BME280;28564;53.346;-6.554;2023-04-07T01:11:24;101291.20;;;10.08;41.53
40372;BME280;28564;53.346;-6.554;2023-04-07T01:13:53;101288.19;;;9.66;41.66
40372;BME280;28564;53.346;-6.554;2023-04-07T01:16:26;101283.29;;;9.59;41.74
40372;BME280;28564;53.346;-6.554;2023-04-07T01:19:07;101280.95;;;9.80;41.74
40372;BME280;28564;53.346;-6.554;2023-04-07T01:21:43;101279.59;;;9.51;41.83
40372;BME280;28564;53.346;-6.554;2023-04-07T01:24:38;101277.65;;;9.55;41.90
40372;BME280;28564;53.346;-6.554;2023-04-07T01:27:30;101277.09;;;9.56;41.91
40372;BME280;28564;53.346;-6.554;2023-04-07T01:30:00;101280.56;;;9.84;42.02
40372;BME280;28564;53.346;-6.554;2023-04-07T01:32:29;101281.50;;;9.80;42.00
40372;BME280;28564;53.346;-6.554;2023-04-07T01:34:59;101278.93;;;9.79;42.13
40372;BME280;28564;53.346;-6.554;2023-04-07T01:37:27;101280.93;;;9.52;42.05
40372;BME280;28564;53.346;-6.554;2023-04-07T01:39:55;101281.47;;;9.42;42.04
40372;BME280;28564;53.346;-6.554;2023-04-07T01:42:22;101283.36;;;9.29;42.29
40372;BME280;28564;53.346;-6.554;2023-04-07T01:44:52;101282.75;;;9.06;42.50
40372;BME280;28564;53.346;-6.554;2023-04-07T01:47:19;101278.21;;;9.56;42.53
40372;BME280;28564;53.346;-6.554;2023-04-07T01:49:47;101276.03;;;9.53;42.35
40372;BME280;28564;53.346;-6.554;2023-04-07T01:52:16;101276.51;;;9.45;42.26
40372;BME280;28564;53.346;-6.554;2023-04-07T01:54:43;101278.05;;;9.59;42.26
40372;BME280;28564;53.346;-6.554;2023-04-07T01:57:11;101272.25;;;9.05;42.32
40372;BME280;28564;53.346;-6.554;2023-04-07T01:59:38;101268.06;;;9.27;42.44
40372;BME280;28564;53.346;-6.554;2023-04-07T02:02:05;101273.21;;;9.25;42.57
40372;BME280;28564;53.346;-6.554;2023-04-07T02:04:36;101273.29;;;9.22;42.57
40372;BME280;28564;53.346;-6.554;2023-04-07T02:07:09;101274.55;;;9.07;42.50
40372;BME280;28564;53.346;-6.554;2023-04-07T02:09:39;101268.92;;;8.94;42.68
40372;BME280;28564;53.346;-6.554;2023-04-07T02:12:12;101269.02;;;8.95;43.01
40372;BME280;28564;53.346;-6.554;2023-04-07T02:14:41;101270.33;;;8.97;43.03
40372;BME280;28564;53.346;-6.554;2023-04-07T02:17:10;101274.20;;;8.97;43.02
40372;BME280;28564;53.346;-6.554;2023-04-07T02:19:38;101275.67;;;8.88;42.90
40372;BME280;28564;53.346;-6.554;2023-04-07T02:22:05;101271.41;;;9.00;43.02
40372;BME280;28564;53.346;-6.554;2023-04-07T02:24:33;101273.53;;;8.76;43.17
40372;BME280;28564;53.346;-6.554;2023-04-07T02:27:00;101270.79;;;8.93;43.26
40372;BME280;28564;53.346;-6.554;2023-04-07T02:29:28;101269.75;;;8.71;43.45
40372;BME280;28564;53.346;-6.554;2023-04-07T02:31:55;101271.93;;;8.96;43.46
40372;BME280;28564;53.346;-6.554;2023-04-07T02:34:22;101270.68;;;8.76;43.44
40372;BME280;28564;53.346;-6.554;2023-04-07T02:36:50;101270.15;;;8.77;43.31
40372;BME280;28564;53.346;-6.554;2023-04-07T02:39:17;101273.53;;;8.97;43.26
40372;BME280;28564;53.346;-6.554;2023-04-07T02:41:44;101271.32;;;8.73;43.27
40372;BME280;28564;53.346;-6.554;2023-04-07T02:44:12;101270.42;;;8.66;43.22
40372;BME280;28564;53.346;-6.554;2023-04-07T02:46:39;101270.64;;;8.52;43.21
40372;BME280;28564;53.346;-6.554;2023-04-07T02:49:06;101268.94;;;8.91;43.40
40372;BME280;28564;53.346;-6.554;2023-04-07T02:51:34;101267.97;;;8.90;43.60
40372;BME280;28564;53.346;-6.554;2023-04-07T02:54:01;101267.80;;;8.92;43.68
40372;BME280;28564;53.346;-6.554;2023-04-07T02:56:29;101264.91;;;8.92;43.67
40372;BME280;28564;53.346;-6.554;2023-04-07T02:58:56;101262.88;;;8.70;43.75
40372;BME280;28564;53.346;-6.554;2023-04-07T03:01:23;101261.65;;;8.70;43.79
40372;BME280;28564;53.346;-6.554;2023-04-07T03:03:51;101262.56;;;8.69;43.77
40372;BME280;28564;53.346;-6.554;2023-04-07T03:06:18;101264.72;;;8.67;43.78
40372;BME280;28564;53.346;-6.554;2023-04-07T03:08:45;101262.11;;;8.62;43.85
40372;BME280;28564;53.346;-6.554;2023-04-07T03:11:13;101260.40;;;8.59;43.92
40372;BME280;28564;53.346;-6.554;2023-04-07T03:13:40;101260.30;;;8.80;43.95
40372;BME280;28564;53.346;-6.554;2023-04-07T03:16:08;101263.49;;;8.51;43.88
40372;BME280;28564;53.346;-6.554;2023-04-07T03:18:35;101265.25;;;8.42;43.94
40372;BME280;28564;53.346;-6.554;2023-04-07T03:21:02;101267.22;;;8.57;44.03
40372;BME280;28564;53.346;-6.554;2023-04-07T03:23:29;101264.33;;;8.30;44.18
40372;BME280;28564;53.346;-6.554;2023-04-07T03:25:57;101265.37;;;8.54;44.28
40372;BME280;28564;53.346;-6.554;2023-04-07T03:28:24;101268.33;;;8.37;44.27
40372;BME280;28564;53.346;-6.554;2023-04-07T03:30:52;101268.15;;;8.64;44.13
40372;BME280;28564;53.346;-6.554;2023-04-07T03:33:19;101269.50;;;8.42;44.16
40372;BME280;28564;53.346;-6.554;2023-04-07T03:35:47;101268.21;;;8.59;44.19
40372;BME280;28564;53.346;-6.554;2023-04-07T03:38:14;101270.16;;;8.56;44.20
40372;BME280;28564;53.346;-6.554;2023-04-07T03:40:41;101271.16;;;8.53;44.23
40372;BME280;28564;53.346;-6.554;2023-04-07T03:43:08;101274.11;;;8.48;44.14
40372;BME280;28564;53.346;-6.554;2023-04-07T03:45:35;101268.66;;;8.22;44.11
40372;BME280;28564;53.346;-6.554;2023-04-07T03:48:03;101266.03;;;8.41;44.15
40372;BME280;28564;53.346;-6.554;2023-04-07T03:50:31;101263.37;;;8.39;44.14
40372;BME280;28564;53.346;-6.554;2023-04-07T03:52:59;101262.13;;;8.36;44.16
40372;BME280;28564;53.346;-6.554;2023-04-07T03:55:26;101260.53;;;8.34;44.15
40372;BME280;28564;53.346;-6.554;2023-04-07T03:57:53;101259.17;;;8.32;44.21
40372;BME280;28564;53.346;-6.554;2023-04-07T04:00:20;101257.93;;;8.29;44.21
40372;BME280;28564;53.346;-6.554;2023-04-07T04:02:47;101258.36;;;8.04;44.26
40372;BME280;28564;53.346;-6.554;2023-04-07T04:05:15;101259.20;;;8.26;44.38
40372;BME280;28564;53.346;-6.554;2023-04-07T04:07:42;101255.41;;;8.05;44.44
40372;BME280;28564;53.346;-6.554;2023-04-07T04:10:10;101255.99;;;8.29;44.48
40372;BME280;28564;53.346;-6.554;2023-04-07T04:12:37;101255.48;;;8.29;44.50
40372;BME280;28564;53.346;-6.554;2023-04-07T04:15:05;101255.17;;;8.28;44.51
40372;BME280;28564;53.346;-6.554;2023-04-07T04:17:32;101255.55;;;8.27;44.53
40372;BME280;28564;53.346;-6.554;2023-04-07T04:20:00;101257.01;;;8.25;44.56
40372;BME280;28564;53.346;-6.554;2023-04-07T04:22:27;101257.46;;;8.23;44.60
40372;BME280;28564;53.346;-6.554;2023-04-07T04:24:54;101259.31;;;8.21;44.62
40372;BME280;28564;53.346;-6.554;2023-04-07T04:27:22;101258.55;;;8.19;44.61
40372;BME280;28564;53.346;-6.554;2023-04-07T04:29:49;101258.62;;;8.15;44.68
40372;BME280;28564;53.346;-6.554;2023-04-07T04:32:17;101256.27;;;8.14;44.74
40372;BME280;28564;53.346;-6.554;2023-04-07T04:34:44;101258.68;;;8.12;44.76
40372;BME280;28564;53.346;-6.554;2023-04-07T04:37:11;101261.42;;;8.08;44.79
40372;BME280;28564;53.346;-6.554;2023-04-07T04:39:39;101257.25;;;7.91;44.63
40372;BME280;28564;53.346;-6.554;2023-04-07T04:42:06;101260.56;;;7.70;44.68
40372;BME280;28564;53.346;-6.554;2023-04-07T04:44:34;101260.90;;;7.53;44.71
40372;BME280;28564;53.346;-6.554;2023-04-07T04:47:01;101262.11;;;7.40;44.78
40372;BME280;28564;53.346;-6.554;2023-04-07T04:49:28;101263.27;;;7.24;44.78
40372;BME280;28564;53.346;-6.554;2023-04-07T04:51:56;101271.03;;;7.42;44.91
40372;BME280;28564;53.346;-6.554;2023-04-07T04:54:23;101275.48;;;7.05;44.97
40372;BME280;28564;53.346;-6.554;2023-04-07T04:56:51;101277.70;;;7.24;45.09
40372;BME280;28564;53.346;-6.554;2023-04-07T04:59:18;101278.20;;;7.17;45.05
40372;BME280;28564;53.346;-6.554;2023-04-07T05:01:45;101282.73;;;7.10;44.96
40372;BME280;28564;53.346;-6.554;2023-04-07T05:04:12;101283.19;;;7.03;45.05
40372;BME280;28564;53.346;-6.554;2023-04-07T05:06:39;101284.32;;;7.22;45.09
40372;BME280;28564;53.346;-6.554;2023-04-07T05:09:07;101284.39;;;6.95;45.08
40372;BME280;28564;53.346;-6.554;2023-04-07T05:11:34;101280.96;;;7.15;45.14
40372;BME280;28564;53.346;-6.554;2023-04-07T05:14:02;101280.99;;;7.12;45.14
40372;BME280;28564;53.346;-6.554;2023-04-07T05:16:29;101278.01;;;7.11;45.17
40372;BME280;28564;53.346;-6.554;2023-04-07T05:18:57;101278.60;;;6.92;45.21
40372;BME280;28564;53.346;-6.554;2023-04-07T05:21:24;101280.08;;;6.96;45.25
40372;BME280;28564;53.346;-6.554;2023-04-07T05:23:52;101278.10;;;6.99;45.24
40372;BME280;28564;53.346;-6.554;2023-04-07T05:26:19;101275.25;;;7.23;45.25
40372;BME280;28564;53.346;-6.554;2023-04-07T05:28:47;101276.89;;;7.24;45.23
40372;BME280;28564;53.346;-6.554;2023-04-07T05:31:14;101277.93;;;7.25;45.23
40372;BME280;28564;53.346;-6.554;2023-04-07T05:33:41;101280.22;;;7.24;45.17
40372;BME280;28564;53.346;-6.554;2023-04-07T05:36:09;101281.49;;;7.01;45.16
40372;BME280;28564;53.346;-6.554;2023-04-07T05:38:36;101285.87;;;6.99;45.13
40372;BME280;28564;53.346;-6.554;2023-04-07T05:41:04;101284.10;;;6.90;45.05
40372;BME280;28564;53.346;-6.554;2023-04-07T05:43:31;101279.48;;;6.88;45.26
40372;BME280;28564;53.346;-6.554;2023-04-07T05:45:58;101279.63;;;6.91;45.33
40372;BME280;28564;53.346;-6.554;2023-04-07T05:48:26;101285.35;;;6.95;45.32
40372;BME280;28564;53.346;-6.554;2023-04-07T05:50:53;101285.45;;;6.97;45.31
40372;BME280;28564;53.346;-6.554;2023-04-07T05:53:21;101288.42;;;7.20;45.33
40372;BME280;28564;53.346;-6.554;2023-04-07T05:55:48;101288.14;;;6.75;45.35
40372;BME280;28564;53.346;-6.554;2023-04-07T05:58:15;101287.03;;;7.29;45.27
40372;BME280;28564;53.346;-6.554;2023-04-07T06:00:43;101287.45;;;7.30;45.29
40372;BME280;28564;53.346;-6.554;2023-04-07T06:03:10;101289.96;;;6.76;45.23
40372;BME280;28564;53.346;-6.554;2023-04-07T06:05:38;101289.78;;;6.76;45.41
40372;BME280;28564;53.346;-6.554;2023-04-07T06:08:05;101289.75;;;7.28;45.44
40372;BME280;28564;53.346;-6.554;2023-04-07T06:10:33;101291.65;;;7.09;45.45
40372;BME280;28564;53.346;-6.554;2023-04-07T06:13:00;101290.40;;;7.13;45.46
40372;BME280;28564;53.346;-6.554;2023-04-07T06:15:27;101288.59;;;6.91;45.47
40372;BME280;28564;53.346;-6.554;2023-04-07T06:17:54;101285.17;;;7.21;45.46
40372;BME280;28564;53.346;-6.554;2023-04-07T06:20:22;101288.13;;;7.25;45.52
40372;BME280;28564;53.346;-6.554;2023-04-07T06:22:49;101286.18;;;7.03;45.49
40372;BME280;28564;53.346;-6.554;2023-04-07T06:25:17;101286.31;;;7.05;45.47
40372;BME280;28564;53.346;-6.554;2023-04-07T06:27:44;101283.79;;;7.09;45.44
40372;BME280;28564;53.346;-6.554;2023-04-07T06:30:12;101279.31;;;7.40;45.44
40372;BME280;28564;53.346;-6.554;2023-04-07T06:32:40;101281.34;;;7.18;45.44
40372;BME280;28564;53.346;-6.554;2023-04-07T06:35:07;101286.00;;;7.24;45.45
40372;BME280;28564;53.346;-6.554;2023-04-07T06:37:35;101287.51;;;7.80;45.46
40372;BME280;28564;53.346;-6.554;2023-04-07T06:40:03;101290.25;;;7.38;45.42
40372;BME280;28564;53.346;-6.554;2023-04-07T06:42:30;101289.73;;;7.44;45.38
40372;BME280;28564;53.346;-6.554;2023-04-07T06:44:57;101291.55;;;7.49;45.35
40372;BME280;28564;53.346;-6.554;2023-04-07T06:47:24;101294.56;;;7.51;45.25
40372;BME280;28564;53.346;-6.554;2023-04-07T06:49:52;101294.02;;;7.52;45.30
40372;BME280;28564;53.346;-6.554;2023-04-07T06:52:19;101294.14;;;7.57;45.36
40372;BME280;28564;53.346;-6.554;2023-04-07T06:54:46;101297.22;;;7.90;45.37
40372;BME280;28564;53.346;-6.554;2023-04-07T06:57:14;101295.86;;;7.47;45.37
40372;BME280;28564;53.346;-6.554;2023-04-07T06:59:41;101298.17;;;7.74;45.36
40372;BME280;28564;53.346;-6.554;2023-04-07T07:02:08;101294.17;;;7.77;45.38
40372;BME280;28564;53.346;-6.554;2023-04-07T07:04:35;101292.98;;;7.79;45.44
40372;BME280;28564;53.346;-6.554;2023-04-07T07:07:03;101297.26;;;7.66;45.52
40372;BME280;28564;53.346;-6.554;2023-04-07T07:09:30;101297.56;;;7.98;45.50
40372;BME280;28564;53.346;-6.554;2023-04-07T07:11:57;101300.45;;;8.15;45.52
40372;BME280;28564;53.346;-6.554;2023-04-07T07:14:24;101295.25;;;7.82;45.53
40372;BME280;28564;53.346;-6.554;2023-04-07T07:16:52;101299.16;;;8.37;45.61
40372;BME280;28564;53.346;-6.554;2023-04-07T07:19:19;101298.29;;;8.48;45.64
40372;BME280;28564;53.346;-6.554;2023-04-07T07:21:46;101302.54;;;8.38;45.70
40372;BME280;28564;53.346;-6.554;2023-04-07T07:24:14;101300.78;;;8.52;45.73
40372;BME280;28564;53.346;-6.554;2023-04-07T07:26:42;101296.67;;;8.63;45.81
40372;BME280;28564;53.346;-6.554;2023-04-07T07:29:09;101301.66;;;8.72;46.02
40372;BME280;28564;53.346;-6.554;2023-04-07T07:31:36;101300.39;;;8.87;46.11
40372;BME280;28564;53.346;-6.554;2023-04-07T07:34:04;101302.86;;;8.82;46.35
40372;BME280;28564;53.346;-6.554;2023-04-07T07:36:31;101299.27;;;8.98;46.59
40372;BME280;28564;53.346;-6.554;2023-04-07T07:38:58;101300.37;;;9.39;46.89
40372;BME280;28564;53.346;-6.554;2023-04-07T07:41:25;101299.93;;;9.34;47.06
40372;BME280;28564;53.346;-6.554;2023-04-07T07:43:53;101297.00;;;9.48;47.28
40372;BME280;28564;53.346;-6.554;2023-04-07T07:46:20;101299.64;;;9.17;47.33
40372;BME280;28564;53.346;-6.554;2023-04-07T07:48:47;101291.84;;;9.85;47.25
40372;BME280;28564;53.346;-6.554;2023-04-07T07:51:15;101288.34;;;9.49;47.27
40372;BME280;28564;53.346;-6.554;2023-04-07T07:53:42;101291.24;;;9.86;47.28
40372;BME280;28564;53.346;-6.554;2023-04-07T07:56:09;101290.37;;;9.76;47.21
40372;BME280;28564;53.346;-6.554;2023-04-07T07:58:37;101291.08;;;9.85;47.23
40372;BME280;28564;53.346;-6.554;2023-04-07T08:01:04;101288.31;;;9.93;47.20
40372;BME280;28564;53.346;-6.554;2023-04-07T08:03:31;101289.86;;;9.99;47.24
40372;BME280;28564;53.346;-6.554;2023-04-07T08:05:58;101293.29;;;10.06;47.22
40372;BME280;28564;53.346;-6.554;2023-04-07T08:08:25;101294.25;;;10.14;47.23
40372;BME280;28564;53.346;-6.554;2023-04-07T08:10:53;101287.84;;;10.21;47.27
40372;BME280;28564;53.346;-6.554;2023-04-07T08:13:20;101289.66;;;10.24;47.43
40372;BME280;28564;53.346;-6.554;2023-04-07T08:15:47;101292.58;;;10.35;47.52
40372;BME280;28564;53.346;-6.554;2023-04-07T08:18:15;101293.67;;;10.46;47.62
40372;BME280;28564;53.346;-6.554;2023-04-07T08:20:42;101297.90;;;10.60;47.67
40372;BME280;28564;53.346;-6.554;2023-04-07T08:23:10;101294.62;;;10.74;47.65
40372;BME280;28564;53.346;-6.554;2023-04-07T08:25:38;101292.83;;;10.61;47.71
40372;BME280;28564;53.346;-6.554;2023-04-07T08:28:05;101297.05;;;11.03;47.67
40372;BME280;28564;53.346;-6.554;2023-04-07T08:30:32;101294.82;;;10.75;47.65
40372;BME280;28564;53.346;-6.554;2023-04-07T08:33:00;101294.63;;;11.02;47.58
40372;BME280;28564;53.346;-6.554;2023-04-07T08:35:27;101294.48;;;11.24;47.31
40372;BME280;28564;53.346;-6.554;2023-04-07T08:37:54;101293.93;;;11.24;47.21
40372;BME280;28564;53.346;-6.554;2023-04-07T08:40:21;101286.11;;;11.67;47.16
40372;BME280;28564;53.346;-6.554;2023-04-07T08:42:50;101285.54;;;11.94;47.05
40372;BME280;28564;53.346;-6.554;2023-04-07T08:45:17;101285.88;;;11.68;46.84
40372;BME280;28564;53.346;-6.554;2023-04-07T08:47:46;101284.91;;;11.93;46.65
40372;BME280;28564;53.346;-6.554;2023-04-07T08:50:16;101284.94;;;12.41;46.28
40372;BME280;28564;53.346;-6.554;2023-04-07T08:52:49;101287.14;;;12.38;46.12
40372;BME280;28564;53.346;-6.554;2023-04-07T08:55:17;101289.33;;;12.55;45.85
40372;BME280;28564;53.346;-6.554;2023-04-07T08:57:50;101290.66;;;12.69;45.68
40372;BME280;28564;53.346;-6.554;2023-04-07T09:03:56;101291.95;;;13.10;44.22
40372;BME280;28564;53.346;-6.554;2023-04-07T09:06:24;101293.07;;;13.09;44.28
40372;BME280;28564;53.346;-6.554;2023-04-07T09:08:51;101290.91;;;13.06;44.44
40372;BME280;28564;53.346;-6.554;2023-04-07T09:11:18;101289.09;;;13.08;44.46
40372;BME280;28564;53.346;-6.554;2023-04-07T09:13:45;101290.78;;;13.06;44.43
40372;BME280;28564;53.346;-6.554;2023-04-07T09:16:13;101292.21;;;13.01;44.51
40372;BME280;28564;53.346;-6.554;2023-04-07T09:18:40;101290.95;;;13.01;44.55
40372;BME280;28564;53.346;-6.554;2023-04-07T09:21:08;101289.48;;;13.25;44.50
40372;BME280;28564;53.346;-6.554;2023-04-07T09:23:37;101288.94;;;13.27;44.45
40372;BME280;28564;53.346;-6.554;2023-04-07T09:26:19;101285.26;;;13.08;44.45
40372;BME280;28564;53.346;-6.554;2023-04-07T09:28:50;101289.10;;;13.07;44.40
40372;BME280;28564;53.346;-6.554;2023-04-07T09:31:17;101288.10;;;13.06;44.30
40372;BME280;28564;53.346;-6.554;2023-04-07T09:33:45;101290.20;;;13.08;44.33
40372;BME280;28564;53.346;-6.554;2023-04-07T09:36:12;101289.12;;;13.32;44.38
40372;BME280;28564;53.346;-6.554;2023-04-07T09:38:40;101287.51;;;13.38;44.46
40372;BME280;28564;53.346;-6.554;2023-04-07T09:41:09;101286.26;;;13.23;44.45
40372;BME280;28564;53.346;-6.554;2023-04-07T09:43:38;101285.13;;;13.31;44.39
40372;BME280;28564;53.346;-6.554;2023-04-07T09:46:07;101285.34;;;13.39;44.04
40372;BME280;28564;53.346;-6.554;2023-04-07T09:48:35;101290.06;;;13.44;43.75
40372;BME280;28564;53.346;-6.554;2023-04-07T09:51:05;101287.49;;;13.52;43.22
40372;BME280;28564;53.346;-6.554;2023-04-07T09:53:43;101283.96;;;13.30;43.13
40372;BME280;28564;53.346;-6.554;2023-04-07T09:56:10;101283.26;;;13.60;42.90
40372;BME280;28564;53.346;-6.554;2023-04-07T09:58:38;101278.31;;;13.70;43.00
40372;BME280;28564;53.346;-6.554;2023-04-07T10:01:06;101275.40;;;13.76;43.01
40372;BME280;28564;53.346;-6.554;2023-04-07T10:03:33;101279.12;;;13.85;42.88
40372;BME280;28564;53.346;-6.554;2023-04-07T10:06:01;101280.86;;;13.65;42.68
40372;BME280;28564;53.346;-6.554;2023-04-07T10:08:32;101281.87;;;13.94;40.77
40372;BME280;28564;53.346;-6.554;2023-04-07T10:11:00;101279.40;;;14.02;39.94
40372;BME280;28564;53.346;-6.554;2023-04-07T10:13:28;101273.56;;;13.83;38.69
40372;BME280;28564;53.346;-6.554;2023-04-07T10:15:56;101274.32;;;14.18;38.35
40372;BME280;28564;53.346;-6.554;2023-04-07T10:18:28;101278.77;;;13.95;38.08
40372;BME280;28564;53.346;-6.554;2023-04-07T10:20:56;101277.31;;;14.28;37.27
40372;BME280;28564;53.346;-6.554;2023-04-07T10:23:31;101275.83;;;14.34;36.75
40372;BME280;28564;53.346;-6.554;2023-04-07T10:26:03;101274.21;;;14.44;36.47
40372;BME280;28564;53.346;-6.554;2023-04-07T10:28:32;101272.76;;;14.04;36.12
40372;BME280;28564;53.346;-6.554;2023-04-07T10:31:17;101278.26;;;14.16;35.86
40372;BME280;28564;53.346;-6.554;2023-04-07T10:33:46;101276.25;;;14.50;35.53
40372;BME280;28564;53.346;-6.554;2023-04-07T10:36:15;101278.90;;;14.59;35.59
40372;BME280;28564;53.346;-6.554;2023-04-07T10:39:18;101277.60;;;14.47;35.30
40372;BME280;28564;53.346;-6.554;2023-04-07T10:41:46;101281.58;;;14.58;35.33
40372;BME280;28564;53.346;-6.554;2023-04-07T10:44:45;101282.58;;;14.72;34.85
40372;BME280;28564;53.346;-6.554;2023-04-07T10:47:13;101277.85;;;14.88;35.05
40372;BME280;28564;53.346;-6.554;2023-04-07T10:50:15;101278.24;;;15.00;35.13
40372;BME280;28564;53.346;-6.554;2023-04-07T10:52:43;101268.71;;;15.13;34.81
40372;BME280;28564;53.346;-6.554;2023-04-07T10:55:42;101271.51;;;15.26;34.56
40372;BME280;28564;53.346;-6.554;2023-04-07T10:58:15;101271.15;;;15.42;34.68
40372;BME280;28564;53.346;-6.554;2023-04-07T11:01:17;101269.79;;;15.32;34.41
40372;BME280;28564;53.346;-6.554;2023-04-07T11:04:00;101268.76;;;15.39;34.68
40372;BME280;28564;53.346;-6.554;2023-04-07T11:06:27;101269.54;;;15.57;34.79
40372;BME280;28564;53.346;-6.554;2023-04-07T11:08:55;101259.40;;;15.52;34.33
40372;BME280;28564;53.346;-6.554;2023-04-07T11:11:39;101258.85;;;15.90;34.31
40372;BME280;28564;53.346;-6.554;2023-04-07T11:14:07;101258.53;;;15.93;34.31
40372;BME280;28564;53.346;-6.554;2023-04-07T11:16:38;101254.25;;;15.90;34.19
40372;BME280;28564;53.346;-6.554;2023-04-07T11:19:06;101251.04;;;16.38;34.02
40372;BME280;28564;53.346;-6.554;2023-04-07T11:21:33;101257.22;;;16.07;33.86
40372;BME280;28564;53.346;-6.554;2023-04-07T11:24:00;101259.64;;;16.24;33.66
40372;BME280;28564;53.346;-6.554;2023-04-07T11:26:29;101254.36;;;16.40;32.87
40372;BME280;28564;53.346;-6.554;2023-04-07T11:29:02;101256.71;;;16.92;32.74
40372;BME280;28564;53.346;-6.554;2023-04-07T11:31:30;101259.46;;;16.95;32.24
40372;BME280;28564;53.346;-6.554;2023-04-07T11:34:00;101254.25;;;17.04;31.33
40372;BME280;28564;53.346;-6.554;2023-04-07T11:36:29;101262.06;;;16.97;31.58
40372;BME280;28564;53.346;-6.554;2023-04-07T11:38:57;101256.09;;;16.87;30.61
40372;BME280;28564;53.346;-6.554;2023-04-07T11:41:26;101256.98;;;16.81;31.25
40372;BME280;28564;53.346;-6.554;2023-04-07T11:44:10;101260.40;;;16.85;30.90
40372;BME280;28564;53.346;-6.554;2023-04-07T11:46:52;101256.83;;;16.77;30.73
40372;BME280;28564;53.346;-6.554;2023-04-07T11:49:19;101255.79;;;16.85;31.44
40372;BME280;28564;53.346;-6.554;2023-04-07T11:51:47;101258.41;;;16.96;31.27
40372;BME280;28564;53.346;-6.554;2023-04-07T11:54:14;101260.40;;;16.96;31.39
40372;BME280;28564;53.346;-6.554;2023-04-07T11:56:42;101258.36;;;17.34;31.30
40372;BME280;28564;53.346;-6.554;2023-04-07T11:59:18;101254.89;;;17.21;31.23
40372;BME280;28564;53.346;-6.554;2023-04-07T12:01:45;101253.99;;;17.16;31.08
40372;BME280;28564;53.346;-6.554;2023-04-07T12:04:13;101252.23;;;17.57;30.88
40372;BME280;28564;53.346;-6.554;2023-04-07T12:06:41;101254.66;;;17.59;30.18
40372;BME280;28564;53.346;-6.554;2023-04-07T12:09:24;101251.75;;;17.77;30.31
40372;BME280;28564;53.346;-6.554;2023-04-07T12:11:52;101253.93;;;17.77;30.24
40372;BME280;28564;53.346;-6.554;2023-04-07T12:14:19;101259.52;;;18.50;29.81
40372;BME280;28564;53.346;-6.554;2023-04-07T12:16:46;101258.95;;;18.02;29.77
40372;BME280;28564;53.346;-6.554;2023-04-07T12:19:14;101263.82;;;18.39;29.77
40372;BME280;28564;53.346;-6.554;2023-04-07T12:21:41;101262.93;;;18.31;29.50
40372;BME280;28564;53.346;-6.554;2023-04-07T12:24:08;101261.78;;;18.60;29.84
40372;BME280;28564;53.346;-6.554;2023-04-07T12:26:35;101267.48;;;18.87;28.53
40372;BME280;28564;53.346;-6.554;2023-04-07T12:29:02;101269.29;;;19.00;28.23
40372;BME280;28564;53.346;-6.554;2023-04-07T12:31:29;101261.19;;;18.79;28.31
40372;BME280;28564;53.346;-6.554;2023-04-07T12:33:56;101263.08;;;18.73;29.15
40372;BME280;28564;53.346;-6.554;2023-04-07T12:36:23;101256.39;;;19.34;28.76
40372;BME280;28564;53.346;-6.554;2023-04-07T12:38:50;101255.48;;;18.93;28.35
40372;BME280;28564;53.346;-6.554;2023-04-07T12:41:17;101257.67;;;19.76;28.39
40372;BME280;28564;53.346;-6.554;2023-04-07T12:43:45;101250.96;;;21.14;27.06
40372;BME280;28564;53.346;-6.554;2023-04-07T12:46:12;101246.53;;;22.04;26.28
40372;BME280;28564;53.346;-6.554;2023-04-07T12:48:39;101247.52;;;23.15;24.81
40372;BME280;28564;53.346;-6.554;2023-04-07T12:51:06;101250.30;;;22.56;24.13
40372;BME280;28564;53.346;-6.554;2023-04-07T12:53:33;101245.20;;;21.60;24.64
40372;BME280;28564;53.346;-6.554;2023-04-07T12:56:00;101245.50;;;20.95;25.51
40372;BME280;28564;53.346;-6.554;2023-04-07T12:58:28;101249.45;;;21.03;26.17